Darstellungsparameter: Aktuell verwendete Einstellungen:
Skalierung der Graphiken ... ?
xyx+y,   Skalierungsfaktor:      Skalierung: Modus: x, Faktor: 1
Darstellungszeitraum ... ?
Vom - - bis: - -   Zeitraum: 11.11.2008 - 12.11.2008
Min/Max/Avg-Anzeige ... ?
Zeige MMA aktuell
Zeige MMA Monat
Zeige MMA alles
Zeige --A aktuell
Zeige --A Monat
Zeige --A alles
Keine MMA-Anzeige
MMA:
Average (ber die Originaldaten)
MMA-Basis: 17.04.2019 - 19.05.2019
Quicknavigation für Darstellung... ?
Tage:      1T, 2T, 3T, 5T -1T -2T -3T -5T +1T +2T +3T +5T
Wochen: 1W, 2W, 3W -1W -2W -3W +1W +2W +3W
Monate: 1M, 3M, 6M -1M -3M -6M +1M +3M +6M
Jahre:    1J, 3J, 5J, 10J -1J -3J -5J -10J +1J +3J +5J +10J
Nutze für die Darstellung ... ?
Originaldaten oder Mittelwerte auf ...
Stundenbasis Tagesbasis Wochenbasis
Monatsbasis Jahresbasis      Datenbasis: Original-Daten
Darstellen als:
Statistik (Auto) Statistik J:M      Darstellung:
Zur Graphik,    zurück zur Übersicht aller Sensoren.
 
Tabellarische Datenbersicht: ?
 
Sensor: Nr:Datum:Temp:Abs-Feuchte:Windchill:Wind:
Aussen-T/F 1 11-11-2008 00:04:02 16 C 7.49 g/m*3 16 C 0 km/h
2 11-11-2008 00:16:02 16 C 7.49 g/m*3 16 C 0 km/h
3 11-11-2008 00:28:02 15.8 C 7.67 g/m*3 15.8 C 0 km/h
4 11-11-2008 00:40:02 15.9 C 7.58 g/m*3 15.9 C 0 km/h
5 11-11-2008 00:52:02 16 C 7.49 g/m*3 16 C 0 km/h
6 11-11-2008 01:04:02 16.1 C 7.4 g/m*3 16.1 C 0 km/h
7 11-11-2008 01:16:02 16.1 C 7.4 g/m*3 16.1 C 0 km/h
8 11-11-2008 01:28:02 15.9 C 7.45 g/m*3 15.9 C 0 km/h
9 11-11-2008 01:40:02 15.7 C 7.49 g/m*3 15.7 C 0 km/h
10 11-11-2008 01:52:02 15.7 C 7.49 g/m*3 15.7 C 0 km/h
11 11-11-2008 02:04:02 15.4 C 7.36 g/m*3 15.4 C 0 km/h
12 11-11-2008 02:16:02 15.2 C 7.4 g/m*3 15.2 C 0 km/h
13 11-11-2008 02:28:02 15.2 C 7.4 g/m*3 15.2 C 0 km/h
14 11-11-2008 02:40:03 15.3 C 7.31 g/m*3 15.3 C 0 km/h
15 11-11-2008 02:52:03 15.2 C 7.27 g/m*3 15.2 C 0 km/h
16 11-11-2008 03:04:03 15.3 C 7.18 g/m*3 15.3 C 0 km/h
17 11-11-2008 03:16:03 15.1 C 7.1 g/m*3 15.1 C 0 km/h
18 11-11-2008 03:28:03 14.9 C 7.14 g/m*3 14.9 C 0 km/h
19 11-11-2008 03:40:03 14.7 C 7.05 g/m*3 14.7 C 0 km/h
20 11-11-2008 03:52:03 14.6 C 7.01 g/m*3 14.6 C 0 km/h
21 11-11-2008 04:04:03 14.4 C 6.92 g/m*3 14.4 C 0 km/h
22 11-11-2008 04:16:03 14.1 C 6.92 g/m*3 14.1 C 0 km/h
23 11-11-2008 04:28:03 14.1 C 6.92 g/m*3 14.1 C 0 km/h
24 11-11-2008 04:40:03 14 C 6.88 g/m*3 14 C 0 km/h
25 11-11-2008 04:52:03 13.6 C 6.94 g/m*3 13.6 C 0 km/h
Sensor: Nr:Datum:Temp:Abs-Feuchte:Windchill:Wind:
Aussen-T/F 26 11-11-2008 05:04:03 13.4 C 6.86 g/m*3 13.4 C 0 km/h
27 11-11-2008 05:16:03 13.3 C 6.93 g/m*3 13.3 C 0 km/h
28 11-11-2008 05:28:03 13.4 C 6.97 g/m*3 13.4 C 0 km/h
29 11-11-2008 05:40:03 13.5 C 6.9 g/m*3 13.5 C 0 km/h
30 11-11-2008 05:52:03 13.5 C 6.9 g/m*3 13.5 C 0 km/h
31 11-11-2008 06:04:03 13.4 C 7.09 g/m*3 13.4 C 0 km/h
32 11-11-2008 06:16:03 13.3 C 7.16 g/m*3 13.3 C 0 km/h
33 11-11-2008 06:28:03 13 C 7.37 g/m*3 13 C 0 km/h
34 11-11-2008 06:40:04 12.7 C 7.57 g/m*3 12.7 C 0 km/h
35 11-11-2008 06:52:04 12.2 C 7.66 g/m*3 12.2 C 0 km/h
36 11-11-2008 07:04:02 12 C 8.1 g/m*3 12 C 0 km/h
37 11-11-2008 07:16:02 12 C 8.21 g/m*3 12 C 0 km/h
38 11-11-2008 07:28:02 12.1 C 8.26 g/m*3 12.1 C 0 km/h
39 11-11-2008 07:40:03 13 C 8.17 g/m*3 13 C 0 km/h
40 11-11-2008 07:52:02 13.3 C 8.09 g/m*3 13.3 C 0 km/h
41 11-11-2008 08:04:01 13.2 C 8.04 g/m*3 13.2 C 0 km/h
42 11-11-2008 08:16:02 13.7 C 7.93 g/m*3 13.7 C 0 km/h
43 11-11-2008 08:28:03 14 C 7.72 g/m*3 14 C 0 km/h
44 11-11-2008 08:40:01 13.7 C 7.82 g/m*3 13.7 C 0 km/h
45 11-11-2008 08:52:02 13.8 C 7.98 g/m*3 13.8 C 0 km/h
46 11-11-2008 09:04:01 13.9 C 8.15 g/m*3 13.9 C 0 km/h
47 11-11-2008 09:16:02 13.5 C 8.19 g/m*3 13.5 C 0 km/h
48 11-11-2008 09:28:02 13.5 C 8.42 g/m*3 13.5 C 0 km/h
49 11-11-2008 09:40:01 13.4 C 8.49 g/m*3 13.4 C 0 km/h
50 11-11-2008 09:52:02 13.7 C 8.41 g/m*3 13.7 C 0 km/h
Sensor: Nr:Datum:Temp:Abs-Feuchte:Windchill:Wind:
Aussen-T/F 51 11-11-2008 10:04:01 13.8 C 8.22 g/m*3 13.8 C 0 km/h
52 11-11-2008 10:16:02 13.4 C 7.9 g/m*3 13.4 C 0 km/h
53 11-11-2008 10:28:02 13.4 C 7.79 g/m*3 13.4 C 0 km/h
54 11-11-2008 10:40:01 13.4 C 7.56 g/m*3 13.4 C 0 km/h
55 11-11-2008 10:52:02 13.5 C 7.6 g/m*3 13.5 C 0 km/h
56 11-11-2008 11:04:01 13.2 C 6.54 g/m*3 13.2 C 0 km/h
57 11-11-2008 11:16:02 12 C 6.5 g/m*3 12 C 0 km/h
58 11-11-2008 11:28:02 11.8 C 6.63 g/m*3 11.8 C 0 km/h
59 11-11-2008 11:40:02 11.6 C 6.55 g/m*3 11.6 C 0 km/h
60 11-11-2008 11:52:02 11.8 C 6.31 g/m*3 11.8 C 0 km/h
61 11-11-2008 12:04:01 11.8 C 6.31 g/m*3 11.8 C 0 km/h
62 11-11-2008 12:16:02 12 C 6.07 g/m*3 12 C 0 km/h
63 11-11-2008 12:28:02 12.3 C 5.86 g/m*3 12.3 C 0 km/h
64 11-11-2008 12:40:01 12.7 C 6.01 g/m*3 12.7 C 0 km/h
65 11-11-2008 12:52:01 13.1 C 5.93 g/m*3 13.1 C 0 km/h
66 11-11-2008 13:04:01 13 C 5.56 g/m*3 13 C 0 km/h
67 11-11-2008 13:16:01 12.9 C 5.75 g/m*3 12.9 C 0 km/h
68 11-11-2008 13:28:01 13.4 C 5.23 g/m*3 13.4 C 0 km/h
69 11-11-2008 13:40:01 13.5 C 5.03 g/m*3 13.5 C 0 km/h
70 11-11-2008 13:52:01 14.1 C 4.73 g/m*3 14.1 C 0 km/h
71 11-11-2008 14:04:02 13.8 C 4.89 g/m*3 13.8 C 0 km/h
72 11-11-2008 14:16:01 14.1 C 4.85 g/m*3 14.1 C 0 km/h
73 11-11-2008 14:28:01 14 C 4.95 g/m*3 14 C 0 km/h
74 11-11-2008 14:40:02 13.5 C 4.68 g/m*3 13.5 C 0 km/h
75 11-11-2008 14:52:02 13.1 C 4.56 g/m*3 13.1 C 0 km/h
Sensor: Nr:Datum:Temp:Abs-Feuchte:Windchill:Wind:
Aussen-T/F 76 11-11-2008 15:04:02 13 C 4.54 g/m*3 13 C 0 km/h
77 11-11-2008 15:16:02 12.8 C 4.7 g/m*3 12.8 C 0 km/h
78 11-11-2008 15:28:02 12.5 C 4.73 g/m*3 12.5 C 0 km/h
79 11-11-2008 15:40:02 12.2 C 4.96 g/m*3 12.2 C 0 km/h
80 11-11-2008 15:52:02 12.1 C 4.93 g/m*3 12.1 C 0 km/h
81 11-11-2008 16:04:01 12.1 C 4.93 g/m*3 12.1 C 0 km/h
82 11-11-2008 16:16:02 12.1 C 4.93 g/m*3 12.1 C 0 km/h
83 11-11-2008 16:28:03 12.1 C 5.15 g/m*3 12.1 C 0 km/h
84 11-11-2008 16:40:01 12 C 5.12 g/m*3 12 C 0 km/h
85 11-11-2008 16:52:01 11.9 C 5.08 g/m*3 11.9 C 0 km/h
86 11-11-2008 17:04:02 11.9 C 4.98 g/m*3 11.9 C 0 km/h
87 11-11-2008 17:16:02 11.9 C 4.87 g/m*3 11.9 C 0 km/h
88 11-11-2008 17:28:03 11.9 C 4.87 g/m*3 11.9 C 0 km/h
89 11-11-2008 17:40:01 11.7 C 4.92 g/m*3 11.7 C 0 km/h
90 11-11-2008 17:52:02 11.3 C 4.79 g/m*3 11.3 C 0 km/h
91 11-11-2008 18:04:01 11.1 C 4.83 g/m*3 11.1 C 0 km/h
92 11-11-2008 18:16:02 11.3 C 4.79 g/m*3 11.3 C 0 km/h
93 11-11-2008 18:28:02 11.4 C 4.82 g/m*3 11.4 C 0 km/h
94 11-11-2008 18:40:01 11.1 C 4.83 g/m*3 11.1 C 0 km/h
95 11-11-2008 18:52:01 11.2 C 4.87 g/m*3 11.2 C 0 km/h
96 11-11-2008 19:04:02 11.1 C 4.94 g/m*3 11.1 C 0 km/h
97 11-11-2008 19:16:01 11.1 C 5.04 g/m*3 11.1 C 0 km/h
98 11-11-2008 19:28:01 11.1 C 5.14 g/m*3 11.1 C 0 km/h
99 11-11-2008 19:40:01 11.1 C 5.14 g/m*3 11.1 C 0 km/h
100 11-11-2008 19:52:01 11.1 C 5.24 g/m*3 11.1 C 0 km/h
Sensor: Nr:Datum:Temp:Abs-Feuchte:Windchill:Wind:
Aussen-T/F 101 11-11-2008 20:04:02 11.1 C 5.24 g/m*3 11.1 C 0 km/h
102 11-11-2008 20:16:01 11.1 C 5.24 g/m*3 11.1 C 0 km/h
103 11-11-2008 20:28:01 11 C 5.31 g/m*3 11 C 0 km/h
104 11-11-2008 20:40:02 11 C 5.41 g/m*3 11 C 0 km/h
105 11-11-2008 20:52:02 11 C 5.51 g/m*3 11 C 0 km/h
106 11-11-2008 21:04:02 10.9 C 5.67 g/m*3 10.9 C 0 km/h
107 11-11-2008 21:16:02 10.8 C 5.63 g/m*3 10.8 C 0 km/h
108 11-11-2008 21:28:02 10.8 C 5.73 g/m*3 10.8 C 0 km/h
109 11-11-2008 21:40:02 10.8 C 5.73 g/m*3 10.8 C 0 km/h
110 11-11-2008 21:52:02 10.8 C 5.73 g/m*3 10.8 C 0 km/h
111 11-11-2008 22:04:01 10.7 C 5.8 g/m*3 10.7 C 0 km/h
112 11-11-2008 22:16:02 10.7 C 5.89 g/m*3 10.7 C 0 km/h
113 11-11-2008 22:28:02 9.5 C 6.64 g/m*3 9.5 C 0 km/h
114 11-11-2008 22:40:02 8.9 C 7.1 g/m*3 8.9 C 0 km/h
115 11-11-2008 22:52:02 8.7 C 7.26 g/m*3 8.7 C 0 km/h
116 11-11-2008 23:04:01 8.5 C 7.26 g/m*3 8.5 C 0 km/h
117 11-11-2008 23:16:02 8.4 C 7.21 g/m*3 8.4 C 0 km/h
118 11-11-2008 23:28:02 8.3 C 7.25 g/m*3 8.3 C 0 km/h
119 11-11-2008 23:40:01 8.3 C 7.33 g/m*3 8.3 C 0 km/h
120 11-11-2008 23:52:02 8.3 C 7.33 g/m*3 8.3 C 0 km/h
121 12-11-2008 00:04:02 8.3 C 7.33 g/m*3 8.3 C 0 km/h
122 12-11-2008 00:16:03 8.2 C 7.37 g/m*3 8.2 C 0 km/h
123 12-11-2008 00:28:03 8.1 C 7.32 g/m*3 8.1 C 0 km/h
124 12-11-2008 00:40:02 8.2 C 7.45 g/m*3 8.2 C 0 km/h
125 12-11-2008 00:52:01 8.1 C 7.41 g/m*3 8.1 C 0 km/h
Sensor: Nr:Datum:Temp:Abs-Feuchte:Windchill:Wind:
Aussen-T/F 126 12-11-2008 01:04:02 8.3 C 7.5 g/m*3 8.3 C 0 km/h
127 12-11-2008 01:16:01 8.3 C 7.5 g/m*3 8.3 C 0 km/h
128 12-11-2008 01:28:01 8.4 C 7.55 g/m*3 8.4 C 0 km/h
129 12-11-2008 01:40:02 8.5 C 7.51 g/m*3 8.5 C 0 km/h
130 12-11-2008 01:52:02 8.5 C 7.51 g/m*3 8.5 C 0 km/h
131 12-11-2008 02:04:02 8.2 C 7.2 g/m*3 8.2 C 0 km/h
132 12-11-2008 02:16:02 8.1 C 7.16 g/m*3 8.1 C 0 km/h
133 12-11-2008 02:28:02 8.1 C 7.16 g/m*3 8.1 C 0 km/h
134 12-11-2008 02:40:02 8 C 7.03 g/m*3 8 C 0 km/h
135 12-11-2008 02:53:03 8.1 C 6.99 g/m*3 8.1 C 0 km/h
136 12-11-2008 03:05:04 8 C 6.94 g/m*3 8 C 0 km/h
137 12-11-2008 03:17:03 7.6 C 6.85 g/m*3 7.6 C 0 km/h
138 12-11-2008 03:29:03 7.5 C 6.88 g/m*3 7.5 C 0 km/h
139 12-11-2008 03:41:01 7.3 C 6.79 g/m*3 7.3 C 0 km/h
140 12-11-2008 03:53:01 7.1 C 6.79 g/m*3 7.1 C 0 km/h
141 12-11-2008 04:05:02 7.3 C 6.95 g/m*3 7.3 C 0 km/h
142 12-11-2008 04:17:02 7.4 C 7 g/m*3 7.4 C 0 km/h
143 12-11-2008 04:29:02 7.2 C 6.91 g/m*3 7.2 C 0 km/h
144 12-11-2008 04:41:02 7.5 C 7.04 g/m*3 7.5 C 0 km/h
145 12-11-2008 04:53:02 7.7 C 7.14 g/m*3 7.7 C 0 km/h
146 12-11-2008 05:05:02 7.9 C 7.15 g/m*3 7.9 C 0 km/h
147 12-11-2008 05:17:01 7.9 C 7.15 g/m*3 7.9 C 0 km/h
148 12-11-2008 05:29:01 7.8 C 7.1 g/m*3 7.8 C 0 km/h
149 12-11-2008 05:41:02 7.6 C 7.01 g/m*3 7.6 C 0 km/h
150 12-11-2008 05:53:02 7.4 C 6.92 g/m*3 7.4 C 0 km/h
Sensor: Nr:Datum:Temp:Abs-Feuchte:Windchill:Wind:
Aussen-T/F 151 12-11-2008 06:05:02 7.4 C 6.92 g/m*3 7.4 C 0 km/h
152 12-11-2008 06:17:02 7.5 C 6.96 g/m*3 7.5 C 0 km/h
153 12-11-2008 06:29:02 7.8 C 6.94 g/m*3 7.8 C 0 km/h
154 12-11-2008 06:41:02 8 C 6.7 g/m*3 8 C 0 km/h
155 12-11-2008 06:53:01 8 C 6.7 g/m*3 8 C 0 km/h
156 12-11-2008 07:05:02 7.8 C 6.69 g/m*3 7.8 C 0 km/h
157 12-11-2008 07:17:01 7.5 C 6.56 g/m*3 7.5 C 0 km/h
158 12-11-2008 07:29:01 7.4 C 6.44 g/m*3 7.4 C 0 km/h
159 12-11-2008 07:41:01 7.2 C 6.44 g/m*3 7.2 C 0 km/h
160 12-11-2008 07:53:02 7.6 C 6.69 g/m*3 7.6 C 0 km/h
161 12-11-2008 08:05:02 7.8 C 6.61 g/m*3 7.8 C 0 km/h
162 12-11-2008 08:17:02 7.9 C 6.49 g/m*3 7.9 C 0 km/h
163 12-11-2008 08:29:02 8 C 6.45 g/m*3 8 C 0 km/h
164 12-11-2008 08:41:02 8.1 C 6.41 g/m*3 8.1 C 0 km/h
165 12-11-2008 08:53:02 7.9 C 6.49 g/m*3 7.9 C 0 km/h
166 12-11-2008 09:05:02 7.8 C 6.45 g/m*3 7.8 C 0 km/h
167 12-11-2008 09:17:02 7.6 C 6.44 g/m*3 7.6 C 0 km/h
168 12-11-2008 09:29:02 7.7 C 6.57 g/m*3 7.7 C 0 km/h
169 12-11-2008 09:41:02 8.2 C 6.7 g/m*3 8.2 C 0 km/h
170 12-11-2008 09:53:02 8.2 C 6.53 g/m*3 8.2 C 0 km/h
171 12-11-2008 10:05:01 8.2 C 6.53 g/m*3 8.2 C 0 km/h
172 12-11-2008 10:17:02 8.9 C 6.57 g/m*3 8.9 C 0 km/h
173 12-11-2008 10:29:02 9.3 C 6.38 g/m*3 9.3 C 0 km/h
174 12-11-2008 10:41:01 9.4 C 6.15 g/m*3 9.4 C 0 km/h
175 12-11-2008 10:53:02 9.6 C 6.32 g/m*3 9.6 C 0 km/h
Sensor: Nr:Datum:Temp:Abs-Feuchte:Windchill:Wind:
Aussen-T/F 176 12-11-2008 11:05:01 9.8 C 6.31 g/m*3 9.8 C 0 km/h
177 12-11-2008 11:17:02 10.2 C 6.38 g/m*3 10.2 C 0 km/h
178 12-11-2008 11:29:02 10.7 C 6.48 g/m*3 10.7 C 0 km/h
179 12-11-2008 11:41:01 10.6 C 6.44 g/m*3 10.6 C 0 km/h
180 12-11-2008 11:53:01 9.9 C 6.63 g/m*3 9.9 C 0 km/h
181 12-11-2008 12:05:01 10.4 C 6.84 g/m*3 10.4 C 0 km/h
182 12-11-2008 12:17:02 10.5 C 6.89 g/m*3 10.5 C 0 km/h
183 12-11-2008 12:29:02 10.4 C 6.65 g/m*3 10.4 C 0 km/h
184 12-11-2008 12:41:01 10.9 C 6.76 g/m*3 10.9 C 0 km/h
185 12-11-2008 12:53:01 11.2 C 6.39 g/m*3 11.2 C 0 km/h
186 12-11-2008 13:05:01 11.8 C 6.31 g/m*3 11.8 C 0 km/h
187 12-11-2008 13:17:01 11.7 C 6.38 g/m*3 11.7 C 0 km/h
188 12-11-2008 13:29:01 11.1 C 6.04 g/m*3 11.1 C 0 km/h
189 12-11-2008 13:41:01 11.5 C 6.09 g/m*3 11.5 C 0 km/h
190 12-11-2008 13:53:01 11.5 C 5.89 g/m*3 11.5 C 0 km/h
191 12-11-2008 14:05:02 11.2 C 5.88 g/m*3 11.2 C 0 km/h
192 12-11-2008 14:17:01 11.9 C 5.93 g/m*3 11.9 C 0 km/h
193 12-11-2008 14:29:01 11.7 C 5.75 g/m*3 11.7 C 0 km/h
194 12-11-2008 14:41:02 11.2 C 5.78 g/m*3 11.2 C 0 km/h
195 12-11-2008 14:53:02 10.9 C 5.97 g/m*3 10.9 C 0 km/h
196 12-11-2008 15:05:02 12 C 5.97 g/m*3 12 C 0 km/h
197 12-11-2008 15:17:01 12.3 C 5.86 g/m*3 12.3 C 0 km/h
198 12-11-2008 15:29:01 11.8 C 5.79 g/m*3 11.8 C 0 km/h
199 12-11-2008 15:41:02 11.1 C 5.84 g/m*3 11.1 C 0 km/h
200 12-11-2008 15:53:02 10.7 C 5.89 g/m*3 10.7 C 0 km/h
Sensor: Nr:Datum:Temp:Abs-Feuchte:Windchill:Wind:
Aussen-T/F 201 12-11-2008 16:05:02 10.8 C 5.93 g/m*3 10.8 C 0 km/h
202 12-11-2008 16:17:02 10.8 C 5.93 g/m*3 10.8 C 0 km/h
203 12-11-2008 16:29:02 10.4 C 5.88 g/m*3 10.4 C 0 km/h
204 12-11-2008 16:41:02 9.9 C 5.98 g/m*3 9.9 C 0 km/h
205 12-11-2008 16:53:02 9.6 C 5.95 g/m*3 9.6 C 0 km/h
206 12-11-2008 17:05:01 9.5 C 6.01 g/m*3 9.5 C 0 km/h
207 12-11-2008 17:17:02 9.2 C 6.07 g/m*3 9.2 C 0 km/h
208 12-11-2008 17:29:02 8.7 C 6.05 g/m*3 8.7 C 0 km/h
209 12-11-2008 17:41:01 8.3 C 5.98 g/m*3 8.3 C 0 km/h
210 12-11-2008 17:53:03 8.1 C 6.07 g/m*3 8.1 C 0 km/h
211 12-11-2008 18:05:02 7.8 C 6.04 g/m*3 7.8 C 0 km/h
212 12-11-2008 18:17:02 7.8 C 6.2 g/m*3 7.8 C 0 km/h
213 12-11-2008 18:29:02 7.6 C 6.2 g/m*3 7.6 C 0 km/h
214 12-11-2008 18:41:02 7.6 C 6.2 g/m*3 7.6 C 0 km/h
215 12-11-2008 18:53:03 7.8 C 6.28 g/m*3 7.8 C 0 km/h
216 12-11-2008 19:05:02 7.7 C 6.24 g/m*3 7.7 C 0 km/h
217 12-11-2008 19:17:02 7.6 C 6.2 g/m*3 7.6 C 0 km/h
218 12-11-2008 19:29:02 7.8 C 6.37 g/m*3 7.8 C 0 km/h
219 12-11-2008 19:41:02 7.7 C 6.32 g/m*3 7.7 C 0 km/h
220 12-11-2008 19:53:02 7.8 C 6.45 g/m*3 7.8 C 0 km/h
221 12-11-2008 20:05:01 7.9 C 6.41 g/m*3 7.9 C 0 km/h
222 12-11-2008 20:17:02 7.9 C 6.41 g/m*3 7.9 C 0 km/h
223 12-11-2008 20:29:02 7.8 C 6.45 g/m*3 7.8 C 0 km/h
224 12-11-2008 20:41:01 7.7 C 6.41 g/m*3 7.7 C 0 km/h
225 12-11-2008 20:53:02 7.4 C 6.28 g/m*3 7.4 C 0 km/h
Sensor: Nr:Datum:Temp:Abs-Feuchte:Windchill:Wind:
Aussen-T/F 226 12-11-2008 21:05:01 7.1 C 6.24 g/m*3 7.1 C 0 km/h
227 12-11-2008 21:17:02 7.1 C 6.32 g/m*3 7.1 C 0 km/h
228 12-11-2008 21:29:02 7.1 C 6.32 g/m*3 7.1 C 0 km/h
229 12-11-2008 21:41:01 7.1 C 6.32 g/m*3 7.1 C 0 km/h
230 12-11-2008 21:53:01 7.1 C 6.4 g/m*3 7.1 C 0 km/h
231 12-11-2008 22:05:02 7.2 C 6.44 g/m*3 7.2 C 0 km/h
232 12-11-2008 22:17:02 7.1 C 6.32 g/m*3 7.1 C 0 km/h
233 12-11-2008 22:29:02 6.8 C 6.27 g/m*3 6.8 C 0 km/h
234 12-11-2008 22:41:01 6.3 C 6.14 g/m*3 6.3 C 0 km/h
235 12-11-2008 22:53:01 6.2 C 6.18 g/m*3 6.2 C 0 km/h
236 12-11-2008 23:05:02 6 C 6.1 g/m*3 6 C 0 km/h
237 12-11-2008 23:17:01 5.7 C 6.05 g/m*3 5.7 C 0 km/h
238 12-11-2008 23:29:01 5.5 C 6.04 g/m*3 5.5 C 0 km/h
239 12-11-2008 23:41:02 5.2 C 5.92 g/m*3 5.2 C 0 km/h
240 12-11-2008 23:53:02 5 C 5.84 g/m*3 5 C 0 km/h

Legende:
   Min
   Max


Maximal/Minimal-Werte vom 17.04.2019 - 19.05.2019

Sensor Min Max Avg
Temp
(Aussen-T/F)
2.2 °C
13-05-2019  06:50:00
26.6 °C
24-04-2019  17:05:00
11.51 °C

Die Daten stammen von einer Davis Vantage Pro 2 Wetter-Station und werden unter Linux mit der Software wview2wettercgi und aufbereitet. Alle Angaben erfolgen ohne Gewähr für ihre Vollständigkeit oder Richtigkeit.
Kontakt: Rainer Krienke krienke@uni-koblenz.de . Meine Webseiten an der Uni Koblenz oder privat.
Version: $Revision: 0.78 $